Time;durP1;ratioP1;P1;durP2;ratioP2;P2;SDS_P1;SDS_P2;PMS_P1;PMS_P2;Temp;Humidity;BMP_temperature;BMP_pressure;BME280_temperature;BME280_humidity;BME280_pressure;Samples;Min_cycle;Max_cycle;Signal;HPM_P1;HPM_P2
2023/06/07 00:00:09;;;;;;;5.00;4.60;;;;;;;;;;5022787;28;20080;-68
2023/06/07 00:02:38;;;;;;;8.98;4.80;;;;;;;;;;5022929;28;20026;-68
2023/06/07 00:05:05;;;;;;;5.18;4.68;;;;;;;;;;5020757;28;20119;-68
2023/06/07 00:07:32;;;;;;;5.03;4.63;;;;;;;;;;5026026;28;20057;-68
2023/06/07 00:10:00;;;;;;;5.22;4.78;;;;;;;;;;5026352;28;20033;-68
2023/06/07 00:12:25;;;;;;;9.45;4.80;;;;;;;;;;5023706;28;20048;-68
2023/06/07 00:14:51;;;;;;;5.93;4.75;;;;;;;;;;5020824;28;20060;-68
2023/06/07 00:17:16;;;;;;;5.10;4.70;;;;;;;;;;5025024;28;20029;-68
2023/06/07 00:19:42;;;;;;;6.70;4.63;;;;;;;;;;5025897;28;20064;-68
2023/06/07 00:22:08;;;;;;;5.35;4.47;;;;;;;;;;5026067;28;20037;-68
2023/06/07 00:24:34;;;;;;;4.90;4.50;;;;;;;;;;5023634;28;20043;-68
2023/06/07 00:27:00;;;;;;;5.55;5.05;;;;;;;;;;5026630;28;20113;-68
2023/06/07 00:29:25;;;;;;;4.93;4.53;;;;;;;;;;5041165;28;20120;-68
2023/06/07 00:31:51;;;;;;;5.35;4.85;;;;;;;;;;5022358;28;20452;-68
2023/06/07 00:34:16;;;;;;;5.28;4.88;;;;;;;;;;5025538;28;20052;-68
2023/06/07 00:36:42;;;;;;;5.60;5.10;;;;;;;;;;5026619;28;20041;-68
2023/06/07 00:39:08;;;;;;;5.15;4.65;;;;;;;;;;5024202;28;20086;-68
2023/06/07 00:41:33;;;;;;;5.50;4.88;;;;;;;;;;5023588;28;20037;-69
2023/06/07 00:44:01;;;;;;;5.40;4.90;;;;;;;;;;5024448;28;20034;-69
2023/06/07 00:46:29;;;;;;;5.50;5.00;;;;;;;;;;5008529;28;20458;-68
2023/06/07 00:48:56;;;;;;;5.32;4.88;;;;;;;;;;5031452;28;20049;-68
2023/06/07 00:51:22;;;;;;;5.30;4.93;;;;;;;;;;5022503;28;20040;-68
2023/06/07 00:53:52;;;;;;;6.10;5.22;;;;;;;;;;5019468;28;20629;-68
2023/06/07 00:56:19;;;;;;;5.82;5.28;;;;;;;;;;5023481;28;20045;-68
2023/06/07 00:58:45;;;;;;;5.78;5.25;;;;;;;;;;5023759;28;20064;-68
2023/06/07 01:01:11;;;;;;;5.45;4.95;;;;;;;;;;5023970;28;20033;-68
2023/06/07 01:03:37;;;;;;;6.40;5.80;;;;;;;;;;5025669;28;20037;-68
2023/06/07 01:06:03;;;;;;;5.60;4.95;;;;;;;;;;5025007;28;20037;-68
2023/06/07 01:08:30;;;;;;;5.70;5.22;;;;;;;;;;5023129;28;20048;-68
2023/06/07 01:10:57;;;;;;;8.52;5.20;;;;;;;;;;5021147;28;20068;-68
2023/06/07 01:13:24;;;;;;;5.60;5.10;;;;;;;;;;5028314;28;20065;-67
2023/06/07 01:15:50;;;;;;;7.18;5.00;;;;;;;;;;5023795;28;20047;-68
2023/06/07 01:18:17;;;;;;;7.70;5.32;;;;;;;;;;5024337;28;20113;-68
2023/06/07 01:20:47;;;;;;;5.32;4.82;;;;;;;;;;5027029;28;20037;-68
2023/06/07 01:23:14;;;;;;;5.72;5.30;;;;;;;;;;5026122;28;20037;-68
2023/06/07 01:25:39;;;;;;;8.20;5.28;;;;;;;;;;5024715;28;20152;-68
2023/06/07 01:28:06;;;;;;;7.82;5.45;;;;;;;;;;5041829;28;20138;-68
2023/06/07 01:30:32;;;;;;;6.88;5.50;;;;;;;;;;5025603;28;20117;-68
2023/06/07 01:33:01;;;;;;;5.50;5.00;;;;;;;;;;5026617;28;20087;-68
2023/06/07 01:35:28;;;;;;;5.30;4.90;;;;;;;;;;5025356;28;20485;-68
2023/06/07 01:37:55;;;;;;;5.32;4.90;;;;;;;;;;5027026;28;20041;-68
2023/06/07 01:40:23;;;;;;;5.95;5.38;;;;;;;;;;5026961;28;20033;-68
2023/06/07 01:42:49;;;;;;;5.47;4.97;;;;;;;;;;5025629;28;20037;-68
2023/06/07 01:45:15;;;;;;;5.75;5.20;;;;;;;;;;5023883;28;20037;-68
2023/06/07 01:47:41;;;;;;;5.78;5.18;;;;;;;;;;5009528;28;20407;-68
2023/06/07 01:50:09;;;;;;;6.40;5.90;;;;;;;;;;5026262;28;20481;-68
2023/06/07 01:52:34;;;;;;;5.55;5.05;;;;;;;;;;5026360;28;20041;-68
2023/06/07 01:55:02;;;;;;;5.95;5.35;;;;;;;;;;5022293;28;20128;-68
2023/06/07 01:57:45;;;;;;;6.00;5.50;;;;;;;;;;5021726;28;20037;-68
2023/06/07 02:00:28;;;;;;;6.22;5.72;;;;;;;;;;5023274;28;20041;-68
2023/06/07 02:03:18;;;;;;;7.35;5.38;;;;;;;;;;5024365;28;20516;-68
2023/06/07 02:05:56;;;;;;;5.97;5.38;;;;;;;;;;5027188;28;20037;-67
2023/06/07 02:08:30;;;;;;;6.47;5.90;;;;;;;;;;5024818;28;20034;-68
2023/06/07 02:10:56;;;;;;;5.60;5.13;;;;;;;;;;5024794;28;20079;-67
2023/06/07 02:13:26;;;;;;;6.05;5.45;;;;;;;;;;5019594;28;20076;-68
2023/06/07 02:15:52;;;;;;;6.35;5.57;;;;;;;;;;5021219;28;20235;-67
2023/06/07 02:18:19;;;;;;;5.95;5.45;;;;;;;;;;5022315;28;20747;-69
2023/06/07 02:20:45;;;;;;;6.38;5.78;;;;;;;;;;5022775;28;20033;-68
2023/06/07 02:23:13;;;;;;;6.43;5.85;;;;;;;;;;5025278;28;20053;-68
2023/06/07 02:25:38;;;;;;;6.38;5.68;;;;;;;;;;5024424;28;20171;-68
2023/06/07 02:28:04;;;;;;;6.43;5.82;;;;;;;;;;5023997;28;20421;-69
2023/06/07 02:30:30;;;;;;;6.88;6.00;;;;;;;;;;5023738;28;20040;-68
2023/06/07 02:32:56;;;;;;;6.38;5.78;;;;;;;;;;5020675;28;20042;-69
2023/06/07 02:35:22;;;;;;;6.47;5.55;;;;;;;;;;5020592;28;20080;-67
2023/06/07 02:37:48;;;;;;;6.07;5.47;;;;;;;;;;5023363;28;20021;-67
2023/06/07 02:40:14;;;;;;;5.78;5.18;;;;;;;;;;5030445;28;20071;-68
2023/06/07 02:42:47;;;;;;;7.72;5.70;;;;;;;;;;5008912;28;20044;-69
2023/06/07 02:45:13;;;;;;;6.15;5.65;;;;;;;;;;5020170;28;20040;-69
2023/06/07 02:47:40;;;;;;;6.75;5.43;;;;;;;;;;5018351;28;20037;-68
2023/06/07 02:50:07;;;;;;;6.70;5.28;;;;;;;;;;5024324;28;20033;-68
2023/06/07 02:52:34;;;;;;;6.82;5.68;;;;;;;;;;5022083;28;20091;-68
2023/06/07 02:55:01;;;;;;;6.18;5.57;;;;;;;;;;5023991;28;20048;-68
2023/06/07 02:57:26;;;;;;;6.03;5.53;;;;;;;;;;5024022;28;20740;-68
2023/06/07 02:59:56;;;;;;;6.35;5.75;;;;;;;;;;5028447;28;20093;-68
2023/06/07 03:02:25;;;;;;;7.05;6.43;;;;;;;;;;5021241;28;20043;-68
2023/06/07 03:04:55;;;;;;;10.00;7.25;;;;;;;;;;5019098;28;20062;-67
2023/06/07 03:07:22;;;;;;;7.53;6.13;;;;;;;;;;5022434;28;20091;-68
2023/06/07 03:09:49;;;;;;;8.65;6.57;;;;;;;;;;5017551;28;20042;-67
2023/06/07 03:12:18;;;;;;;6.40;5.80;;;;;;;;;;5020571;28;20041;-67
2023/06/07 03:14:49;;;;;;;6.55;6.00;;;;;;;;;;5025438;28;20045;-67
2023/06/07 03:17:17;;;;;;;6.78;6.13;;;;;;;;;;5019105;28;20040;-67
2023/06/07 03:19:46;;;;;;;7.15;6.45;;;;;;;;;;5019834;28;20037;-68
2023/06/07 03:22:11;;;;;;;7.25;6.55;;;;;;;;;;5025802;28;20103;-67
2023/06/07 03:24:39;;;;;;;7.13;6.43;;;;;;;;;;5019803;28;20041;-67
2023/06/07 03:27:06;;;;;;;8.77;6.53;;;;;;;;;;5021919;28;20034;-67
2023/06/07 03:29:32;;;;;;;8.35;6.40;;;;;;;;;;5020381;28;20128;-67
2023/06/07 03:31:58;;;;;;;7.00;6.30;;;;;;;;;;5019828;28;20121;-67
2023/06/07 03:34:26;;;;;;;6.50;5.75;;;;;;;;;;5020157;28;20132;-67
2023/06/07 03:36:52;;;;;;;5.85;5.35;;;;;;;;;;5020162;28;20538;-67
2023/06/07 03:39:18;;;;;;;6.28;5.78;;;;;;;;;;5026396;28;20029;-67
2023/06/07 03:41:44;;;;;;;6.60;6.05;;;;;;;;;;5022095;28;20045;-67
2023/06/07 03:44:14;;;;;;;6.65;6.05;;;;;;;;;;5022026;28;20079;-68
2023/06/07 03:46:41;;;;;;;6.90;6.32;;;;;;;;;;5024878;28;20033;-67
2023/06/07 03:49:08;;;;;;;7.30;6.60;;;;;;;;;;5024238;28;20041;-67
2023/06/07 03:51:37;;;;;;;7.10;6.50;;;;;;;;;;5021157;28;20048;-68
2023/06/07 03:54:03;;;;;;;7.22;6.40;;;;;;;;;;5023567;28;20100;-68
2023/06/07 03:56:29;;;;;;;7.28;6.55;;;;;;;;;;5023193;28;20048;-67
2023/06/07 03:58:55;;;;;;;6.97;6.38;;;;;;;;;;5023713;28;20523;-68
2023/06/07 04:01:25;;;;;;;6.47;5.82;;;;;;;;;;5024849;28;20109;-68
2023/06/07 04:03:52;;;;;;;7.00;6.30;;;;;;;;;;5026559;28;20034;-68
2023/06/07 04:06:20;;;;;;;7.57;6.85;;;;;;;;;;5023419;28;20988;-68
2023/06/07 04:08:47;;;;;;;8.40;6.05;;;;;;;;;;5026832;28;20116;-68
2023/06/07 04:11:13;;;;;;;7.57;6.18;;;;;;;;;;5024565;28;20033;-68
2023/06/07 04:13:41;;;;;;;6.32;5.72;;;;;;;;;;5028396;28;20096;-68
2023/06/07 04:16:07;;;;;;;7.05;6.38;;;;;;;;;;5023759;28;20058;-68
2023/06/07 04:18:33;;;;;;;7.22;6.03;;;;;;;;;;5025548;28;20033;-68
2023/06/07 04:20:59;;;;;;;5.95;5.40;;;;;;;;;;5026737;28;20075;-68
2023/06/07 04:23:25;;;;;;;6.00;5.50;;;;;;;;;;5029549;28;20629;-68
2023/06/07 04:25:54;;;;;;;5.70;5.30;;;;;;;;;;5024531;28;20091;-67
2023/06/07 04:28:24;;;;;;;7.38;5.70;;;;;;;;;;5032780;28;20163;-68
2023/06/07 04:30:57;;;;;;;5.78;5.28;;;;;;;;;;5026751;28;20025;-68
2023/06/07 04:33:23;;;;;;;5.20;4.80;;;;;;;;;;5026731;28;20061;-67
2023/06/07 04:35:50;;;;;;;4.90;4.50;;;;;;;;;;5028673;28;20037;-68
2023/06/07 04:38:21;;;;;;;5.45;5.05;;;;;;;;;;5025336;28;20047;-68
2023/06/07 04:40:51;;;;;;;6.30;4.88;;;;;;;;;;5026689;28;20095;-68
2023/06/07 04:43:28;;;;;;;5.78;4.90;;;;;;;;;;5019890;28;20029;-68
2023/06/07 04:45:54;;;;;;;5.28;4.88;;;;;;;;;;5020694;28;20386;-68
2023/06/07 04:48:26;;;;;;;6.50;5.07;;;;;;;;;;5020389;28;20488;-68
2023/06/07 04:51:04;;;;;;;5.20;4.78;;;;;;;;;;5023293;28;20040;-68
2023/06/07 04:53:36;;;;;;;5.78;5.20;;;;;;;;;;5024235;28;20051;-68
2023/06/07 04:56:03;;;;;;;6.00;5.50;;;;;;;;;;5042198;28;20038;-68
2023/06/07 04:58:31;;;;;;;5.55;5.10;;;;;;;;;;5026363;28;20673;-68
2023/06/07 05:01:00;;;;;;;5.88;5.38;;;;;;;;;;5027368;28;20045;-68
2023/06/07 05:03:26;;;;;;;5.32;4.93;;;;;;;;;;5041170;28;20045;-68
2023/06/07 05:05:55;;;;;;;5.78;5.20;;;;;;;;;;5024397;28;20071;-68
2023/06/07 05:08:23;;;;;;;6.15;5.55;;;;;;;;;;5025904;28;20044;-68
2023/06/07 05:10:49;;;;;;;5.78;5.28;;;;;;;;;;5023974;28;20416;-68
2023/06/07 05:13:15;;;;;;;5.50;5.10;;;;;;;;;;5024130;28;20489;-67
2023/06/07 05:15:41;;;;;;;5.40;4.90;;;;;;;;;;5024616;28;20041;-68
2023/06/07 05:18:08;;;;;;;9.02;5.22;;;;;;;;;;5024609;28;20397;-68
2023/06/07 05:20:35;;;;;;;5.22;4.82;;;;;;;;;;5022498;28;20052;-68
2023/06/07 05:23:03;;;;;;;5.85;5.35;;;;;;;;;;5020640;28;20108;-68
2023/06/07 05:25:31;;;;;;;;;;;;;;;;;;5025402;28;20572;-68
2023/06/07 05:27:58;;;;;;;5.85;5.35;;;;;;;;;;5025002;28;20587;-68
2023/06/07 05:30:24;;;;;;;6.47;5.63;;;;;;;;;;5024383;28;20040;-68
2023/06/07 05:32:51;;;;;;;5.97;4.85;;;;;;;;;;5022575;28;20489;-68
2023/06/07 05:35:17;;;;;;;5.57;5.07;;;;;;;;;;5025848;28;20036;-68
2023/06/07 05:37:47;;;;;;;5.50;5.03;;;;;;;;;;5025907;28;20533;-68
2023/06/07 05:40:17;;;;;;;6.50;5.13;;;;;;;;;;5025255;28;20042;-69
2023/06/07 05:42:49;;;;;;;5.20;4.80;;;;;;;;;;5024683;28;20416;-69
2023/06/07 05:45:15;;;;;;;6.65;4.90;;;;;;;;;;5025639;28;20037;-69
2023/06/07 05:47:41;;;;;;;5.43;4.85;;;;;;;;;;5025604;28;20040;-69
2023/06/07 05:50:10;;;;;;;8.52;5.28;;;;;;;;;;5031225;28;20021;-68
2023/06/07 05:52:35;;;;;;;5.28;4.82;;;;;;;;;;5026637;28;20041;-69
2023/06/07 05:55:01;;;;;;;5.55;5.05;;;;;;;;;;5026118;28;20037;-69
2023/06/07 05:57:28;;;;;;;5.18;4.68;;;;;;;;;;5026435;28;20168;-68
2023/06/07 05:59:54;;;;;;;6.47;5.15;;;;;;;;;;5023451;28;20042;-68
2023/06/07 06:02:20;;;;;;;5.40;4.85;;;;;;;;;;5026667;28;20025;-68
2023/06/07 06:04:47;;;;;;;5.40;4.90;;;;;;;;;;5025557;28;20048;-68
2023/06/07 06:07:15;;;;;;;5.57;5.05;;;;;;;;;;5024921;28;20052;-68
2023/06/07 06:09:41;;;;;;;5.53;5.03;;;;;;;;;;5025810;28;20033;-68
2023/06/07 06:12:07;;;;;;;5.55;5.05;;;;;;;;;;5026044;28;20493;-69
2023/06/07 06:14:33;;;;;;;4.90;4.50;;;;;;;;;;5025940;28;20037;-68
2023/06/07 06:16:58;;;;;;;5.68;5.10;;;;;;;;;;5023716;28;20041;-68
2023/06/07 06:19:25;;;;;;;5.35;4.85;;;;;;;;;;5025889;28;20033;-69
2023/06/07 06:21:50;;;;;;;4.95;4.55;;;;;;;;;;5025491;28;20041;-66
2023/06/07 06:24:16;;;;;;;5.80;4.53;;;;;;;;;;5024213;28;20388;-66
2023/06/07 06:26:42;;;;;;;5.07;4.53;;;;;;;;;;5025391;28;20087;-66
2023/06/07 06:29:07;;;;;;;5.78;4.78;;;;;;;;;;5025692;28;20095;-68
2023/06/07 06:31:33;;;;;;;5.40;4.60;;;;;;;;;;5025778;28;20034;-69
2023/06/07 06:33:59;;;;;;;5.60;4.25;;;;;;;;;;5022792;28;20041;-66
2023/06/07 06:36:24;;;;;;;4.75;4.15;;;;;;;;;;5025807;28;20041;-66
2023/06/07 06:38:50;;;;;;;5.38;4.35;;;;;;;;;;5025229;28;20496;-69
2023/06/07 06:41:16;;;;;;;4.63;4.22;;;;;;;;;;5025593;28;20044;-69
2023/06/07 06:43:42;;;;;;;4.97;4.47;;;;;;;;;;5023205;28;20408;-69
2023/06/07 06:46:11;;;;;;;4.80;4.35;;;;;;;;;;5025142;28;20037;-67
2023/06/07 06:48:37;;;;;;;4.70;4.20;;;;;;;;;;5025595;28;20756;-67
2023/06/07 06:51:03;;;;;;;4.50;4.10;;;;;;;;;;5026126;28;20037;-66
2023/06/07 06:53:29;;;;;;;4.93;4.53;;;;;;;;;;5023564;28;20045;-67
2023/06/07 06:55:55;;;;;;;4.28;3.97;;;;;;;;;;5024390;28;20048;-67
2023/06/07 06:58:20;;;;;;;5.90;4.53;;;;;;;;;;5024429;28;20029;-67
2023/06/07 07:00:46;;;;;;;4.45;4.10;;;;;;;;;;5022629;28;20034;-67
2023/06/07 07:03:12;;;;;;;4.03;3.72;;;;;;;;;;5022400;28;20567;-70
2023/06/07 07:05:37;;;;;;;4.90;4.32;;;;;;;;;;5022325;28;20043;-69
2023/06/07 07:08:03;;;;;;;4.20;3.80;;;;;;;;;;5016397;28;20038;-67
2023/06/07 07:10:29;;;;;;;4.28;3.88;;;;;;;;;;5025126;28;20146;-67
2023/06/07 07:12:54;;;;;;;4.00;3.60;;;;;;;;;;5028557;28;20045;-67
2023/06/07 07:15:20;;;;;;;4.03;3.72;;;;;;;;;;5025276;28;20033;-67
2023/06/07 07:17:47;;;;;;;4.50;4.05;;;;;;;;;;5023198;28;20046;-67
2023/06/07 07:20:14;;;;;;;4.13;3.83;;;;;;;;;;5024671;28;20033;-67
2023/06/07 07:22:40;;;;;;;4.10;3.70;;;;;;;;;;5025061;28;20191;-66
2023/06/07 07:25:07;;;;;;;5.43;3.85;;;;;;;;;;5025255;28;20420;-69
2023/06/07 07:27:33;;;;;;;4.50;4.15;;;;;;;;;;5022986;28;20036;-66
2023/06/07 07:29:59;;;;;;;4.47;3.88;;;;;;;;;;5024914;28;20037;-67
2023/06/07 07:32:25;;;;;;;4.53;4.20;;;;;;;;;;5024892;28;20133;-67
2023/06/07 07:34:50;;;;;;;4.00;3.70;;;;;;;;;;5022843;28;20136;-67
2023/06/07 07:37:17;;;;;;;4.15;3.63;;;;;;;;;;5020675;28;20057;-67
2023/06/07 07:39:42;;;;;;;4.47;4.00;;;;;;;;;;5020434;28;20072;-67
2023/06/07 07:42:08;;;;;;;4.75;4.32;;;;;;;;;;5022008;28;20072;-67
2023/06/07 07:44:34;;;;;;;4.57;4.18;;;;;;;;;;5018353;28;20050;-67
2023/06/07 07:47:00;;;;;;;5.03;4.57;;;;;;;;;;5021987;28;20403;-67
2023/06/07 07:49:26;;;;;;;4.30;3.95;;;;;;;;;;5022368;28;20052;-68
2023/06/07 07:51:51;;;;;;;5.15;4.10;;;;;;;;;;5022831;28;20083;-69
2023/06/07 07:54:17;;;;;;;4.40;4.10;;;;;;;;;;5020474;28;20059;-69
2023/06/07 07:56:43;;;;;;;4.05;3.67;;;;;;;;;;5023306;28;20057;-67
2023/06/07 07:59:10;;;;;;;3.80;3.50;;;;;;;;;;5022785;28;20107;-66
2023/06/07 08:01:36;;;;;;;3.92;3.63;;;;;;;;;;5020343;28;20026;-67
2023/06/07 08:04:01;;;;;;;3.40;3.10;;;;;;;;;;5022591;28;20044;-67
2023/06/07 08:06:27;;;;;;;4.03;3.50;;;;;;;;;;5022813;28;20029;-67
2023/06/07 08:08:53;;;;;;;6.15;3.60;;;;;;;;;;5020210;28;20045;-67
2023/06/07 08:11:18;;;;;;;3.97;3.58;;;;;;;;;;5022846;28;20044;-68
2023/06/07 08:13:44;;;;;;;4.10;3.65;;;;;;;;;;5022664;28;20531;-67
2023/06/07 08:16:09;;;;;;;3.70;3.38;;;;;;;;;;5022776;28;20164;-67
2023/06/07 08:18:35;;;;;;;3.40;3.20;;;;;;;;;;5019702;28;20029;-67
2023/06/07 08:21:02;;;;;;;3.63;3.33;;;;;;;;;;5019540;28;20045;-68
2023/06/07 08:23:28;;;;;;;3.88;3.50;;;;;;;;;;5021629;28;20041;-67
2023/06/07 08:25:53;;;;;;;3.78;3.47;;;;;;;;;;5022466;28;20041;-69
2023/06/07 08:28:20;;;;;;;3.60;3.30;;;;;;;;;;5025105;28;20063;-69
2023/06/07 08:30:47;;;;;;;3.63;3.30;;;;;;;;;;5024908;28;20095;-69
2023/06/07 08:33:13;;;;;;;3.42;3.22;;;;;;;;;;5025778;28;20037;-69
2023/06/07 08:35:38;;;;;;;3.85;3.55;;;;;;;;;;5024475;28;20511;-68
2023/06/07 08:38:04;;;;;;;3.70;3.40;;;;;;;;;;5024810;28;20038;-69
2023/06/07 08:40:32;;;;;;;3.72;3.33;;;;;;;;;;5016746;28;20045;-70
2023/06/07 08:42:58;;;;;;;3.85;3.47;;;;;;;;;;5021542;28;20420;-68
2023/06/07 08:45:23;;;;;;;4.75;3.88;;;;;;;;;;5021083;28;20041;-69
2023/06/07 08:47:51;;;;;;;3.63;3.30;;;;;;;;;;5022329;28;20045;-68
2023/06/07 08:50:21;;;;;;;3.78;3.30;;;;;;;;;;5020201;28;20029;-69
2023/06/07 08:52:54;;;;;;;3.45;3.13;;;;;;;;;;5022605;28;20029;-68
2023/06/07 08:55:21;;;;;;;3.72;3.33;;;;;;;;;;5021323;28;20041;-69
2023/06/07 08:57:51;;;;;;;3.83;3.30;;;;;;;;;;5020399;28;20083;-68
2023/06/07 09:00:21;;;;;;;6.63;2.92;;;;;;;;;;5021978;28;20033;-69
2023/06/07 09:02:53;;;;;;;3.63;3.25;;;;;;;;;;5022239;28;20115;-69
2023/06/07 09:05:22;;;;;;;3.08;2.85;;;;;;;;;;5018980;28;20021;-69
2023/06/07 09:07:49;;;;;;;3.17;2.92;;;;;;;;;;5022551;28;20040;-70
2023/06/07 09:10:17;;;;;;;3.45;3.15;;;;;;;;;;5021859;28;20799;-69
2023/06/07 09:12:47;;;;;;;3.17;2.90;;;;;;;;;;5020503;28;20730;-69
2023/06/07 09:15:20;;;;;;;4.38;3.35;;;;;;;;;;5017385;28;20501;-69
2023/06/07 09:17:55;;;;;;;3.38;3.08;;;;;;;;;;5021997;28;20068;-69
2023/06/07 09:20:28;;;;;;;4.40;3.30;;;;;;;;;;5022134;28;20056;-70
2023/06/07 09:23:08;;;;;;;3.83;3.40;;;;;;;;;;5019765;28;20037;-68
2023/06/07 09:25:37;;;;;;;3.58;3.28;;;;;;;;;;5022393;28;20046;-69
2023/06/07 09:28:04;;;;;;;3.60;3.30;;;;;;;;;;5022061;28;20087;-69
2023/06/07 09:30:29;;;;;;;3.55;3.25;;;;;;;;;;5021527;28;20036;-69
2023/06/07 09:32:55;;;;;;;3.78;3.17;;;;;;;;;;5021192;28;20041;-68
2023/06/07 09:35:21;;;;;;;5.15;3.25;;;;;;;;;;5020507;28;20041;-68
2023/06/07 09:37:52;;;;;;;5.03;3.40;;;;;;;;;;5021890;28;20459;-69
2023/06/07 09:40:22;;;;;;;4.38;3.45;;;;;;;;;;5017457;28;20077;-68
2023/06/07 09:42:58;;;;;;;3.60;3.13;;;;;;;;;;5020302;28;20064;-69
2023/06/07 09:45:25;;;;;;;4.47;3.08;;;;;;;;;;5020265;28;20120;-69
2023/06/07 09:48:04;;;;;;;3.58;3.28;;;;;;;;;;5021824;28;20036;-68
2023/06/07 09:50:30;;;;;;;;;;;;;;;;;;5016549;28;20144;-69
2023/06/07 09:52:56;;;;;;;3.30;3.00;;;;;;;;;;5020551;28;20522;-68
2023/06/07 09:55:27;;;;;;;3.33;3.13;;;;;;;;;;5018320;28;20033;-69
2023/06/07 09:57:57;;;;;;;4.18;3.50;;;;;;;;;;5018118;28;20144;-69
2023/06/07 10:00:24;;;;;;;3.20;3.00;;;;;;;;;;5017436;28;20033;-68
2023/06/07 10:02:50;;;;;;;3.65;3.35;;;;;;;;;;5020873;28;20048;-68
2023/06/07 10:05:17;;;;;;;3.50;3.20;;;;;;;;;;5016481;28;20897;-69
2023/06/07 10:07:45;;;;;;;4.35;3.40;;;;;;;;;;5020812;28;20055;-69
2023/06/07 10:10:14;;;;;;;3.78;3.20;;;;;;;;;;5017272;28;20033;-70
2023/06/07 10:12:41;;;;;;;4.75;3.30;;;;;;;;;;5021603;28;20033;-69
2023/06/07 10:15:10;;;;;;;3.03;2.83;;;;;;;;;;5019246;28;20040;-69
2023/06/07 10:17:44;;;;;;;;;;;;;;;;;;5021140;28;20025;-68
2023/06/07 10:20:15;;;;;;;3.22;2.92;;;;;;;;;;5017811;28;19921;-69
2023/06/07 10:22:43;;;;;;;6.03;3.10;;;;;;;;;;5015730;28;21710;-69
2023/06/07 10:25:14;;;;;;;3.78;3.40;;;;;;;;;;5018070;28;20037;-69
2023/06/07 10:27:55;;;;;;;3.97;3.42;;;;;;;;;;5017040;28;20727;-68
2023/06/07 10:30:24;;;;;;;3.65;3.35;;;;;;;;;;5017171;28;20045;-68
2023/06/07 10:32:52;;;;;;;3.33;3.10;;;;;;;;;;5020231;28;20763;-68
2023/06/07 10:35:19;;;;;;;3.70;3.40;;;;;;;;;;5013812;28;20132;-69
2023/06/07 10:37:50;;;;;;;3.70;3.40;;;;;;;;;;5016088;28;20037;-69
2023/06/07 10:40:16;;;;;;;5.65;3.40;;;;;;;;;;5006820;28;20079;-69
2023/06/07 10:42:44;;;;;;;3.72;3.30;;;;;;;;;;5005939;28;20038;-69
2023/06/07 10:45:14;;;;;;;3.60;3.30;;;;;;;;;;5016159;28;20118;-69
2023/06/07 10:47:41;;;;;;;4.70;3.13;;;;;;;;;;5018413;28;20044;-69
2023/06/07 10:50:07;;;;;;;3.80;3.50;;;;;;;;;;5020391;28;20116;-69
2023/06/07 10:52:32;;;;;;;3.75;3.38;;;;;;;;;;5020720;28;20393;-69
2023/06/07 10:54:58;;;;;;;3.85;3.55;;;;;;;;;;5019246;28;20052;-69
2023/06/07 10:57:37;;;;;;;3.33;3.10;;;;;;;;;;5020471;28;20033;-69
2023/06/07 11:00:24;;;;;;;3.80;3.30;;;;;;;;;;5020340;28;20099;-69
2023/06/07 11:02:50;;;;;;;3.60;3.30;;;;;;;;;;5019193;28;20045;-69
2023/06/07 11:05:16;;;;;;;3.90;2.88;;;;;;;;;;5019558;28;20047;-70
2023/06/07 11:07:47;;;;;;;3.78;2.90;;;;;;;;;;5020829;28;20152;-68
2023/06/07 11:10:16;;;;;;;3.38;3.17;;;;;;;;;;5015889;28;20044;-69
2023/06/07 11:12:45;;;;;;;4.07;2.78;;;;;;;;;;5012714;28;20029;-69
2023/06/07 11:15:16;;;;;;;3.20;3.00;;;;;;;;;;5017903;28;20040;-69
2023/06/07 11:18:07;;;;;;;3.78;3.20;;;;;;;;;;5019383;28;20048;-69
2023/06/07 11:20:36;;;;;;;3.20;3.00;;;;;;;;;;5015503;28;20029;-69
2023/06/07 11:23:24;;;;;;;3.40;3.10;;;;;;;;;;5017036;28;20049;-69
2023/06/07 11:25:51;;;;;;;;;;;;;;;;;;5021012;28;20501;-68
2023/06/07 11:28:33;;;;;;;3.40;3.10;;;;;;;;;;5015380;28;19917;-69
2023/06/07 11:31:02;;;;;;;3.40;3.10;;;;;;;;;;5020165;28;20044;-69
2023/06/07 11:33:29;;;;;;;3.55;3.28;;;;;;;;;;5019814;28;20037;-69
2023/06/07 11:35:55;;;;;;;3.88;3.40;;;;;;;;;;5019279;28;20033;-69
2023/06/07 11:38:22;;;;;;;3.55;3.20;;;;;;;;;;5015270;28;20554;-69
2023/06/07 11:40:49;;;;;;;3.70;3.40;;;;;;;;;;5020199;28;20045;-69
2023/06/07 11:43:19;;;;;;;3.30;3.10;;;;;;;;;;5020447;28;20107;-68
2023/06/07 11:45:45;;;;;;;3.08;2.90;;;;;;;;;;5017472;28;20056;-69
2023/06/07 11:48:10;;;;;;;3.30;3.10;;;;;;;;;;5017625;28;20045;-69
2023/06/07 11:50:37;;;;;;;3.47;3.10;;;;;;;;;;5022206;28;20048;-69
2023/06/07 11:53:04;;;;;;;3.30;3.08;;;;;;;;;;5018423;28;20037;-69
2023/06/07 11:55:30;;;;;;;3.55;3.35;;;;;;;;;;5008691;28;20061;-69
2023/06/07 11:57:59;;;;;;;3.53;3.22;;;;;;;;;;5015927;28;20038;-69
2023/06/07 12:00:25;;;;;;;3.63;3.33;;;;;;;;;;5013861;28;20587;-69
2023/06/07 12:02:51;;;;;;;3.25;3.05;;;;;;;;;;5006374;28;20176;-69
2023/06/07 12:05:17;;;;;;;3.22;3.03;;;;;;;;;;5012825;28;20088;-70
2023/06/07 12:07:43;;;;;;;3.50;3.20;;;;;;;;;;5024140;28;20076;-69
2023/06/07 12:10:10;;;;;;;4.43;3.33;;;;;;;;;;5023023;28;20037;-69
2023/06/07 12:12:39;;;;;;;3.38;3.17;;;;;;;;;;5021019;28;20599;-68
2023/06/07 12:15:05;;;;;;;3.30;3.10;;;;;;;;;;5021304;28;20041;-69
2023/06/07 12:17:35;;;;;;;3.17;2.97;;;;;;;;;;5022058;28;20044;-69
2023/06/07 12:20:14;;;;;;;3.67;3.38;;;;;;;;;;5014857;28;20091;-69
2023/06/07 12:22:40;;;;;;;3.00;2.80;;;;;;;;;;5010509;28;20095;-69
2023/06/07 12:25:15;;;;;;;2.90;2.70;;;;;;;;;;5024407;28;20235;-68
2023/06/07 12:28:03;;;;;;;3.85;3.55;;;;;;;;;;5021289;28;20149;-69
2023/06/07 12:30:40;;;;;;;3.30;3.03;;;;;;;;;;5027318;28;20965;-69
2023/06/07 12:33:13;;;;;;;3.42;2.67;;;;;;;;;;5021966;28;20029;-69
2023/06/07 12:35:39;;;;;;;2.92;2.83;;;;;;;;;;5019575;28;20040;-68
2023/06/07 12:38:05;;;;;;;3.05;2.85;;;;;;;;;;5020254;28;20037;-69
2023/06/07 12:40:33;;;;;;;2.87;2.77;;;;;;;;;;5022509;28;20597;-70
2023/06/07 12:42:58;;;;;;;2.83;2.63;;;;;;;;;;5022670;28;20044;-68
2023/06/07 12:45:24;;;;;;;3.33;3.13;;;;;;;;;;5022649;28;20041;-69
2023/06/07 12:47:50;;;;;;;3.08;2.88;;;;;;;;;;5019410;28;20037;-69
2023/06/07 12:50:15;;;;;;;3.13;2.63;;;;;;;;;;5021002;28;20048;-68
2023/06/07 12:52:42;;;;;;;2.72;2.63;;;;;;;;;;5022845;28;20061;-69
2023/06/07 12:55:08;;;;;;;3.00;2.70;;;;;;;;;;5021984;28;20047;-69
2023/06/07 12:57:33;;;;;;;3.70;2.92;;;;;;;;;;5018929;28;20052;-69
2023/06/07 12:59:59;;;;;;;4.70;2.60;;;;;;;;;;5010181;28;20052;-69
2023/06/07 13:02:25;;;;;;;3.00;2.80;;;;;;;;;;5019907;28;20753;-69
2023/06/07 13:04:50;;;;;;;2.85;2.72;;;;;;;;;;5018552;28;20052;-69
2023/06/07 13:07:16;;;;;;;3.00;2.80;;;;;;;;;;5021799;28;20037;-69
2023/06/07 13:09:41;;;;;;;3.08;2.88;;;;;;;;;;5021651;28;20980;-68
2023/06/07 13:12:08;;;;;;;3.05;2.80;;;;;;;;;;5021021;28;20029;-69
2023/06/07 13:14:34;;;;;;;2.72;2.63;;;;;;;;;;5019408;28;20516;-68
2023/06/07 13:17:00;;;;;;;2.92;2.80;;;;;;;;;;5019509;28;20049;-68
2023/06/07 13:19:25;;;;;;;2.90;2.70;;;;;;;;;;5016703;28;20037;-69
2023/06/07 13:21:51;;;;;;;3.05;2.90;;;;;;;;;;5020946;28;20124;-69
2023/06/07 13:24:17;;;;;;;2.88;2.70;;;;;;;;;;5016130;28;20100;-69
2023/06/07 13:26:44;;;;;;;3.20;3.00;;;;;;;;;;5021597;28;20034;-69
2023/06/07 13:29:09;;;;;;;5.50;2.80;;;;;;;;;;5021655;28;20052;-69
2023/06/07 13:31:35;;;;;;;3.28;3.03;;;;;;;;;;5020838;28;20033;-69
2023/06/07 13:34:02;;;;;;;3.15;2.95;;;;;;;;;;5014444;28;20099;-69
2023/06/07 13:36:27;;;;;;;3.20;3.10;;;;;;;;;;5021262;28;20037;-69
2023/06/07 13:38:54;;;;;;;3.85;3.10;;;;;;;;;;5021572;28;20033;-69
2023/06/07 13:41:20;;;;;;;3.00;2.80;;;;;;;;;;5020062;28;20033;-69
2023/06/07 13:43:47;;;;;;;3.70;2.85;;;;;;;;;;5020816;28;20034;-68
2023/06/07 13:46:13;;;;;;;3.50;3.30;;;;;;;;;;5021363;28;20136;-68
2023/06/07 13:48:41;;;;;;;3.70;3.50;;;;;;;;;;5019265;28;20047;-69
2023/06/07 13:51:10;;;;;;;3.83;3.50;;;;;;;;;;5026846;28;20033;-68
2023/06/07 13:53:35;;;;;;;;;;;;;;;;;;5020354;28;20673;-68
2023/06/07 13:56:01;;;;;;;3.58;3.28;;;;;;;;;;5021275;28;19920;-67
2023/06/07 13:58:31;;;;;;;5.10;3.10;;;;;;;;;;5020630;28;20034;-68
2023/06/07 14:01:02;;;;;;;3.30;3.10;;;;;;;;;;5016887;28;20540;-68
2023/06/07 14:03:29;;;;;;;3.42;3.22;;;;;;;;;;5020198;28;20115;-69
2023/06/07 14:05:55;;;;;;;3.78;3.58;;;;;;;;;;5021633;28;20064;-70
2023/06/07 14:08:20;;;;;;;3.72;3.42;;;;;;;;;;5016148;28;20520;-69
2023/06/07 14:10:46;;;;;;;3.40;3.20;;;;;;;;;;5020724;28;20088;-69
2023/06/07 14:13:14;;;;;;;6.05;3.20;;;;;;;;;;5021025;28;20087;-68
2023/06/07 14:15:40;;;;;;;3.72;3.40;;;;;;;;;;5019941;28;20099;-68
2023/06/07 14:18:07;;;;;;;3.10;2.90;;;;;;;;;;5020863;28;20041;-69
2023/06/07 14:20:33;;;;;;;3.92;2.90;;;;;;;;;;5021142;28;20070;-68
2023/06/07 14:22:58;;;;;;;3.50;3.30;;;;;;;;;;5017186;28;20048;-69
2023/06/07 14:25:24;;;;;;;3.90;3.60;;;;;;;;;;5031429;28;20060;-69
2023/06/07 14:27:50;;;;;;;3.85;3.55;;;;;;;;;;5017706;28;20033;-69
2023/06/07 14:30:16;;;;;;;3.90;3.60;;;;;;;;;;5014439;28;20038;-69
2023/06/07 14:32:42;;;;;;;3.85;3.65;;;;;;;;;;5022310;28;20041;-68
2023/06/07 14:35:08;;;;;;;3.60;3.40;;;;;;;;;;5018917;28;20033;-68
2023/06/07 14:37:34;;;;;;;3.80;3.60;;;;;;;;;;5020938;28;20048;-68
2023/06/07 14:39:59;;;;;;;3.67;3.47;;;;;;;;;;5019342;28;20041;-69
2023/06/07 14:42:25;;;;;;;3.42;3.22;;;;;;;;;;5020562;28;20072;-68
2023/06/07 14:44:54;;;;;;;3.40;3.20;;;;;;;;;;5020447;28;20369;-68
2023/06/07 14:47:20;;;;;;;3.40;3.20;;;;;;;;;;5020912;28;21096;-69